createdAt,value
2023-02-06T00:00:49.212Z,37.60
2023-02-06T00:03:16.486Z,34.10
2023-02-06T00:05:43.757Z,37.10
2023-02-06T00:08:11.598Z,36.70
2023-02-06T00:10:38.646Z,38.50
2023-02-06T00:13:05.585Z,38.10
2023-02-06T00:15:33.248Z,35.20
2023-02-06T00:18:00.420Z,34.00
2023-02-06T00:20:27.613Z,34.50
2023-02-06T00:22:54.468Z,34.30
2023-02-06T00:25:21.216Z,33.90
2023-02-06T00:27:48.377Z,36.60
2023-02-06T00:30:18.664Z,33.20
2023-02-06T00:32:45.550Z,33.00
2023-02-06T00:35:12.744Z,37.60
2023-02-06T00:37:39.749Z,30.80
2023-02-06T00:40:08.030Z,33.10
2023-02-06T00:42:34.870Z,31.10
2023-02-06T00:45:01.813Z,30.20
2023-02-06T00:47:28.574Z,29.60
2023-02-06T00:49:55.951Z,29.70
2023-02-06T00:52:22.531Z,29.40
2023-02-06T00:54:49.331Z,36.50
2023-02-06T00:57:16.646Z,31.10
2023-02-06T00:59:43.876Z,32.80
2023-02-06T01:02:11.239Z,36.40
2023-02-06T01:04:37.997Z,29.70
2023-02-06T01:07:04.961Z,32.90
2023-02-06T01:09:32.028Z,31.00
2023-02-06T01:11:59.071Z,33.40
2023-02-06T01:14:26.104Z,34.30
2023-02-06T01:16:53.246Z,33.90
2023-02-06T01:19:20.155Z,33.70
2023-02-06T01:21:47.549Z,34.00
2023-02-06T01:24:14.674Z,30.70
2023-02-06T01:26:41.986Z,35.30
2023-02-06T01:29:08.866Z,33.70
2023-02-06T01:31:35.588Z,33.60
2023-02-06T01:34:02.515Z,36.10
2023-02-06T01:36:29.303Z,33.50
2023-02-06T01:38:56.446Z,31.70
2023-02-06T01:41:24.040Z,34.30
2023-02-06T01:44:13.888Z,33.90
2023-02-06T01:46:42.647Z,31.10
2023-02-06T01:49:20.325Z,31.60
2023-02-06T01:51:48.524Z,36.90
2023-02-06T01:54:15.971Z,35.90
2023-02-06T01:56:52.934Z,36.70
2023-02-06T01:59:20.788Z,39.60
2023-02-06T02:01:47.835Z,33.80
2023-02-06T02:04:21.093Z,39.00
2023-02-06T02:06:58.295Z,39.50
2023-02-06T02:09:26.095Z,33.20
2023-02-06T02:11:53.633Z,37.90
2023-02-06T02:14:20.500Z,37.20
2023-02-06T02:16:50.301Z,37.30
2023-02-06T02:19:54.667Z,36.90
2023-02-06T02:22:51.466Z,38.30
2023-02-06T02:25:21.201Z,37.50
2023-02-06T02:27:57.307Z,41.90
2023-02-06T02:31:04.383Z,38.30
2023-02-06T02:33:31.148Z,40.30
2023-02-06T02:36:25.774Z,38.00
2023-02-06T02:39:08.057Z,32.70
2023-02-06T02:41:44.812Z,34.60
2023-02-06T02:44:19.328Z,33.20
2023-02-06T02:46:52.194Z,33.30
2023-02-06T02:49:24.612Z,30.40
2023-02-06T02:51:51.972Z,28.30
2023-02-06T02:54:19.276Z,27.60
2023-02-06T02:56:46.780Z,26.10
2023-02-06T02:59:25.575Z,26.50
2023-02-06T03:02:03.623Z,29.60
2023-02-06T03:04:37.394Z,32.10
2023-02-06T03:07:06.948Z,30.60
2023-02-06T03:10:02.746Z,27.80
2023-02-06T03:12:52.596Z,32.00
2023-02-06T03:15:35.240Z,27.80
2023-02-06T03:18:23.443Z,27.90
2023-02-06T03:20:51.031Z,25.70
2023-02-06T03:23:28.235Z,25.40
2023-02-06T03:25:58.887Z,26.30
2023-02-06T03:28:34.268Z,25.50
2023-02-06T03:31:05.715Z,25.00
2023-02-06T03:33:42.793Z,29.50
2023-02-06T03:36:17.057Z,28.80
2023-02-06T03:38:46.314Z,26.60
2023-02-06T03:41:15.345Z,26.10
2023-02-06T03:43:45.001Z,26.50
2023-02-06T03:46:14.724Z,27.00
2023-02-06T03:48:45.873Z,27.30
2023-02-06T03:51:18.488Z,27.90
2023-02-06T03:53:47.310Z,27.10
2023-02-06T03:56:30.963Z,29.90
2023-02-06T03:58:57.747Z,30.60
2023-02-06T04:01:25.282Z,25.00
2023-02-06T04:03:52.400Z,24.40
2023-02-06T04:06:20.089Z,26.60
2023-02-06T04:08:47.020Z,24.70
2023-02-06T04:11:13.975Z,24.50
2023-02-06T04:13:40.858Z,22.90
2023-02-06T04:16:07.861Z,26.10
2023-02-06T04:18:34.965Z,26.70
2023-02-06T04:21:07.696Z,25.50
2023-02-06T04:23:34.822Z,23.90
2023-02-06T04:26:02.117Z,22.00
2023-02-06T04:28:29.015Z,23.00
2023-02-06T04:30:55.932Z,21.80
2023-02-06T04:33:23.069Z,24.00
2023-02-06T04:35:50.824Z,24.60
2023-02-06T04:38:18.046Z,28.10
2023-02-06T04:40:45.118Z,26.70
2023-02-06T04:43:12.302Z,29.30
2023-02-06T04:45:39.229Z,26.30
2023-02-06T04:48:06.274Z,29.30
2023-02-06T04:50:34.309Z,31.60
2023-02-06T04:53:01.544Z,25.50
2023-02-06T04:55:28.630Z,25.40
2023-02-06T04:57:55.564Z,28.80
2023-02-06T05:00:22.532Z,25.80
2023-02-06T05:02:49.758Z,26.80
2023-02-06T05:05:16.826Z,30.30
2023-02-06T05:07:43.720Z,29.70
2023-02-06T05:10:11.468Z,28.10
2023-02-06T05:12:38.939Z,25.60
2023-02-06T05:15:06.496Z,30.00
2023-02-06T05:17:33.342Z,33.60
2023-02-06T05:20:00.672Z,32.80
2023-02-06T05:22:27.856Z,30.10
2023-02-06T05:24:54.916Z,27.40
2023-02-06T05:27:22.073Z,30.60
2023-02-06T05:29:49.171Z,27.60
2023-02-06T05:32:16.542Z,26.90
2023-02-06T05:34:43.453Z,26.00
2023-02-06T05:37:10.353Z,25.10
2023-02-06T05:39:37.262Z,29.00
2023-02-06T05:42:04.472Z,26.20
2023-02-06T05:44:32.058Z,25.10
2023-02-06T05:46:59.009Z,27.80
2023-02-06T05:49:26.195Z,28.70
2023-02-06T05:51:53.808Z,28.00
2023-02-06T05:54:21.203Z,25.80
2023-02-06T05:56:48.780Z,25.10
2023-02-06T05:59:15.901Z,28.20
2023-02-06T06:01:42.764Z,28.70
2023-02-06T06:04:10.015Z,27.90
2023-02-06T06:06:36.808Z,25.10
2023-02-06T06:09:03.980Z,25.90
2023-02-06T06:11:31.831Z,30.00
2023-02-06T06:13:58.771Z,25.20
2023-02-06T06:16:25.969Z,29.00
2023-02-06T06:18:52.874Z,25.30
2023-02-06T06:21:19.993Z,30.10
2023-02-06T06:23:46.854Z,29.20
2023-02-06T06:26:14.053Z,27.20
2023-02-06T06:28:41.361Z,28.80
2023-02-06T06:31:12.868Z,28.50
2023-02-06T06:33:40.073Z,26.50
2023-02-06T06:36:08.742Z,27.00
2023-02-06T06:38:35.585Z,28.90
2023-02-06T06:41:02.841Z,31.20
2023-02-06T06:43:29.963Z,30.70
2023-02-06T06:45:57.241Z,29.00
2023-02-06T06:48:24.286Z,34.90
2023-02-06T06:50:51.275Z,28.80
2023-02-06T06:53:18.378Z,30.50
2023-02-06T06:55:50.228Z,30.50
2023-02-06T06:58:17.372Z,29.30
2023-02-06T07:00:44.261Z,28.70
2023-02-06T07:03:12.457Z,30.10
2023-02-06T07:05:39.772Z,30.80
2023-02-06T07:08:06.706Z,31.10
2023-02-06T07:10:33.571Z,30.40
2023-02-06T07:13:00.668Z,31.40
2023-02-06T07:15:27.506Z,32.60
2023-02-06T07:17:54.226Z,32.70
2023-02-06T07:20:21.013Z,33.60
2023-02-06T07:22:49.348Z,37.00
2023-02-06T07:25:17.593Z,31.70
2023-02-06T07:27:44.759Z,36.60
2023-02-06T07:30:13.026Z,29.90
2023-02-06T07:32:39.902Z,28.90
2023-02-06T07:35:06.996Z,25.60
2023-02-06T07:37:33.783Z,32.90
2023-02-06T07:40:00.545Z,27.70
2023-02-06T07:42:27.509Z,33.00
2023-02-06T07:44:54.923Z,34.90
2023-02-06T07:47:22.036Z,31.30
2023-02-06T07:49:48.885Z,24.90
2023-02-06T07:52:15.959Z,25.20
2023-02-06T07:54:42.833Z,29.20
2023-02-06T07:57:09.510Z,32.00
2023-02-06T07:59:36.209Z,25.40
2023-02-06T08:02:03.328Z,24.20
2023-02-06T08:04:35.618Z,25.50
2023-02-06T08:07:04.115Z,23.00
2023-02-06T08:09:31.736Z,24.80
2023-02-06T08:11:58.457Z,22.90
2023-02-06T08:14:25.999Z,22.70
2023-02-06T08:16:52.980Z,27.90
2023-02-06T08:19:20.860Z,27.00
2023-02-06T08:21:47.810Z,27.30
2023-02-06T08:24:14.548Z,27.40
2023-02-06T08:26:41.603Z,29.10
2023-02-06T08:29:08.551Z,23.60
2023-02-06T08:31:38.760Z,26.30
2023-02-06T08:34:06.832Z,31.60
2023-02-06T08:36:34.294Z,32.70
2023-02-06T08:39:02.069Z,30.50
2023-02-06T08:41:31.375Z,41.50
2023-02-06T08:44:00.578Z,29.70
2023-02-06T08:46:29.470Z,34.80
2023-02-06T08:48:57.615Z,32.70
2023-02-06T08:51:27.834Z,35.40
2023-02-06T08:54:03.406Z,39.20
2023-02-06T08:56:31.987Z,35.00
2023-02-06T08:58:59.777Z,30.80
2023-02-06T09:01:28.232Z,31.70
2023-02-06T09:03:56.880Z,30.10
2023-02-06T09:06:25.407Z,28.30
2023-02-06T09:08:53.274Z,24.40
2023-02-06T09:11:23.024Z,27.80
2023-02-06T09:13:50.867Z,31.80
2023-02-06T09:16:19.517Z,28.70
2023-02-06T09:18:49.132Z,28.60
2023-02-06T09:21:22.395Z,23.50
2023-02-06T09:23:54.711Z,27.50
2023-02-06T09:26:24.758Z,29.00
2023-02-06T09:28:57.619Z,28.80
2023-02-06T09:31:26.888Z,24.70
2023-02-06T09:33:54.575Z,24.60
2023-02-06T09:36:22.090Z,26.10
2023-02-06T09:38:53.407Z,25.80
2023-02-06T09:41:45.595Z,26.60
2023-02-06T09:44:28.154Z,25.90
2023-02-06T09:47:06.793Z,21.70
2023-02-06T09:49:42.338Z,23.30
2023-02-06T09:52:27.462Z,24.80
2023-02-06T09:55:25.895Z,21.50
2023-02-06T09:58:43.542Z,18.80
2023-02-06T10:01:38.239Z,16.60
2023-02-06T10:04:34.015Z,14.20
2023-02-06T10:07:19.370Z,14.10
2023-02-06T10:10:11.331Z,14.50
2023-02-06T10:12:42.808Z,14.90
2023-02-06T10:15:24.302Z,14.30
2023-02-06T10:17:58.573Z,13.60
2023-02-06T10:20:40.083Z,14.60
2023-02-06T10:23:32.345Z,12.80
2023-02-06T10:26:04.850Z,13.80
2023-02-06T10:28:33.514Z,12.00
2023-02-06T10:31:18.002Z,13.90
2023-02-06T10:34:06.583Z,15.50
2023-02-06T10:36:55.540Z,13.50
2023-02-06T10:39:47.290Z,15.20
2023-02-06T10:42:46.988Z,11.80
2023-02-06T10:45:22.573Z,16.70
2023-02-06T10:47:54.232Z,14.80
2023-02-06T10:50:33.056Z,14.80
2023-02-06T10:53:06.350Z,14.30
2023-02-06T10:55:49.356Z,16.30
2023-02-06T10:58:35.576Z,15.20
2023-02-06T11:01:13.926Z,16.10
2023-02-06T11:03:54.540Z,16.30
2023-02-06T11:06:22.402Z,15.60
2023-02-06T11:08:49.251Z,15.50
2023-02-06T11:11:20.991Z,18.10
2023-02-06T11:13:53.194Z,16.60
2023-02-06T11:16:26.984Z,14.80
2023-02-06T11:18:57.003Z,14.90
2023-02-06T11:21:42.138Z,12.40
2023-02-06T11:24:14.634Z,16.10
2023-02-06T11:26:54.883Z,15.40
2023-02-06T11:29:25.331Z,13.40
2023-02-06T11:31:58.628Z,14.30
2023-02-06T11:34:44.379Z,13.30
2023-02-06T11:37:38.836Z,13.10
2023-02-06T11:40:17.989Z,12.40
2023-02-06T11:42:52.758Z,13.20
2023-02-06T11:45:33.799Z,10.50
2023-02-06T11:48:01.841Z,12.30
2023-02-06T11:50:37.308Z,12.10
2023-02-06T11:53:14.910Z,12.70
2023-02-06T11:55:42.683Z,12.90
2023-02-06T11:58:12.259Z,12.10
2023-02-06T12:00:55.107Z,10.60
2023-02-06T12:03:27.644Z,12.50
2023-02-06T12:05:58.980Z,12.60
2023-02-06T12:08:34.965Z,14.00
2023-02-06T12:11:05.103Z,11.20
2023-02-06T12:13:42.574Z,11.10
2023-02-06T12:16:13.249Z,11.70
2023-02-06T12:18:44.293Z,9.90
2023-02-06T12:21:26.983Z,10.50
2023-02-06T12:23:58.966Z,10.70
2023-02-06T12:26:29.059Z,11.70
2023-02-06T12:29:15.131Z,8.10
2023-02-06T12:31:45.692Z,10.40
2023-02-06T12:34:53.494Z,9.30
2023-02-06T12:37:35.887Z,9.50
2023-02-06T12:40:02.690Z,9.80
2023-02-06T12:42:39.277Z,10.00
2023-02-06T12:45:12.058Z,10.60
2023-02-06T12:47:54.040Z,11.30
2023-02-06T12:50:38.727Z,11.30
2023-02-06T12:53:31.175Z,10.30
2023-02-06T12:56:19.212Z,11.60
2023-02-06T12:59:15.004Z,11.80
2023-02-06T13:01:55.802Z,14.10
2023-02-06T13:04:30.234Z,12.50
2023-02-06T13:07:09.753Z,9.90
2023-02-06T13:09:46.692Z,11.70
2023-02-06T13:12:19.511Z,9.30
2023-02-06T13:14:53.187Z,9.00
2023-02-06T13:17:25.088Z,8.70
2023-02-06T13:20:01.032Z,8.00
2023-02-06T13:22:49.523Z,9.30
2023-02-06T13:25:28.525Z,11.80
2023-02-06T13:28:20.430Z,8.40
2023-02-06T13:31:22.778Z,6.80
2023-02-06T13:33:56.667Z,9.30
2023-02-06T13:36:47.817Z,7.60
2023-02-06T13:39:26.675Z,6.50
2023-02-06T13:41:53.610Z,8.10
2023-02-06T13:44:30.507Z,8.80
2023-02-06T13:47:21.748Z,7.50
2023-02-06T13:50:26.195Z,8.90
2023-02-06T13:53:31.459Z,8.00
2023-02-06T13:56:05.881Z,6.20
2023-02-06T13:58:46.348Z,6.30
2023-02-06T14:01:41.391Z,6.70
2023-02-06T14:04:15.255Z,6.20
2023-02-06T14:06:48.238Z,6.70
2023-02-06T14:09:33.149Z,6.10
2023-02-06T14:12:31.020Z,7.00
2023-02-06T14:15:00.386Z,7.90
2023-02-06T14:17:57.054Z,8.00
2023-02-06T14:20:40.509Z,7.60
2023-02-06T14:23:41.103Z,9.20
2023-02-06T14:26:43.063Z,7.70
2023-02-06T14:29:42.910Z,7.40
2023-02-06T14:32:35.683Z,7.30
2023-02-06T14:35:37.034Z,7.80
2023-02-06T14:38:13.916Z,6.40
2023-02-06T14:40:42.977Z,10.00
2023-02-06T14:43:17.916Z,8.90
2023-02-06T14:46:05.463Z,8.30
2023-02-06T14:48:44.305Z,8.30
2023-02-06T14:51:35.576Z,7.80
2023-02-06T14:54:05.244Z,5.80
2023-02-06T14:56:39.181Z,7.60
2023-02-06T14:59:18.144Z,7.50
2023-02-06T15:01:48.227Z,9.10
2023-02-06T15:04:19.005Z,8.60
2023-02-06T15:07:00.702Z,6.90
2023-02-06T15:09:31.247Z,7.60
2023-02-06T15:12:01.273Z,7.90
2023-02-06T15:14:31.100Z,6.80
2023-02-06T15:17:00.134Z,10.40
2023-02-06T15:19:32.053Z,8.10
2023-02-06T15:22:05.868Z,9.20
2023-02-06T15:24:47.783Z,5.60
2023-02-06T15:27:26.952Z,9.40
2023-02-06T15:29:54.036Z,4.80
2023-02-06T15:32:34.432Z,5.50
2023-02-06T15:35:02.136Z,5.50
2023-02-06T15:37:33.838Z,6.20
2023-02-06T15:40:07.150Z,4.00
2023-02-06T15:42:33.914Z,4.70
2023-02-06T15:45:01.090Z,4.80
2023-02-06T15:47:28.894Z,6.10
2023-02-06T15:49:56.952Z,6.00
2023-02-06T15:52:42.687Z,7.20
2023-02-06T15:55:35.837Z,5.80
2023-02-06T15:58:04.869Z,5.20
2023-02-06T16:00:34.493Z,5.90
2023-02-06T16:03:07.892Z,4.20
2023-02-06T16:05:38.142Z,6.00
2023-02-06T16:08:10.383Z,7.30
2023-02-06T16:10:39.842Z,5.50
2023-02-06T16:13:17.035Z,5.90
2023-02-06T16:16:18.529Z,7.00
2023-02-06T16:18:46.455Z,6.70
2023-02-06T16:21:15.949Z,5.50
2023-02-06T16:24:06.862Z,6.10
2023-02-06T16:26:47.124Z,6.50
2023-02-06T16:29:29.467Z,8.20
2023-02-06T16:32:24.436Z,8.10
2023-02-06T16:34:51.937Z,6.60
2023-02-06T16:37:27.478Z,7.30
2023-02-06T16:39:54.323Z,5.30
2023-02-06T16:42:27.188Z,7.60
2023-02-06T16:44:59.473Z,5.30
2023-02-06T16:47:26.833Z,6.20
2023-02-06T16:49:53.705Z,6.30
2023-02-06T16:52:31.834Z,6.70
2023-02-06T16:54:59.259Z,7.20
2023-02-06T16:57:33.278Z,11.50
2023-02-06T17:00:01.205Z,7.20
2023-02-06T17:02:28.668Z,10.00
2023-02-06T17:04:55.858Z,11.60
2023-02-06T17:07:27.378Z,9.10
2023-02-06T17:09:56.846Z,9.20
2023-02-06T17:12:23.747Z,8.90
2023-02-06T17:14:50.860Z,8.60
2023-02-06T17:17:20.917Z,7.00
2023-02-06T17:19:48.672Z,8.20
2023-02-06T17:22:15.986Z,7.40
2023-02-06T17:24:42.878Z,7.50
2023-02-06T17:27:15.570Z,9.40
2023-02-06T17:29:42.474Z,10.80
2023-02-06T17:32:09.728Z,10.30
2023-02-06T17:34:37.432Z,9.10
2023-02-06T17:37:04.534Z,9.10
2023-02-06T17:39:31.693Z,7.40
2023-02-06T17:41:58.657Z,7.10
2023-02-06T17:44:25.749Z,12.00
2023-02-06T17:46:52.876Z,10.20
2023-02-06T17:49:19.823Z,10.90
2023-02-06T17:51:46.491Z,10.90
2023-02-06T17:54:13.860Z,11.40
2023-02-06T17:56:40.696Z,8.50
2023-02-06T17:59:07.675Z,8.90
2023-02-06T18:01:34.599Z,12.30
2023-02-06T18:04:01.635Z,7.60
2023-02-06T18:06:34.072Z,8.80
2023-02-06T18:09:00.957Z,10.70
2023-02-06T18:11:27.884Z,10.00
2023-02-06T18:13:55.954Z,9.30
2023-02-06T18:16:25.940Z,13.40
2023-02-06T18:18:53.222Z,13.80
2023-02-06T18:21:21.414Z,12.20
2023-02-06T18:23:48.294Z,11.10
2023-02-06T18:26:16.260Z,9.70
2023-02-06T18:28:43.267Z,8.00
2023-02-06T18:31:24.668Z,9.60
2023-02-06T18:33:52.497Z,9.50
2023-02-06T18:36:19.624Z,10.20
2023-02-06T18:38:46.554Z,8.50
2023-02-06T18:41:33.048Z,10.30
2023-02-06T18:44:01.642Z,9.00
2023-02-06T18:46:28.627Z,8.10
2023-02-06T18:48:55.375Z,9.00
2023-02-06T18:51:22.939Z,8.80
2023-02-06T18:53:50.201Z,8.80
2023-02-06T18:56:17.118Z,8.70
2023-02-06T18:58:44.320Z,7.30
2023-02-06T19:01:16.742Z,7.70
2023-02-06T19:03:45.143Z,8.60
2023-02-06T19:06:21.767Z,8.40
2023-02-06T19:08:48.567Z,9.60
2023-02-06T19:11:15.865Z,9.70
2023-02-06T19:13:43.048Z,9.00
2023-02-06T19:16:13.095Z,9.30
2023-02-06T19:18:42.241Z,7.70
2023-02-06T19:21:11.954Z,8.20
2023-02-06T19:23:40.236Z,10.20
2023-02-06T19:26:12.154Z,8.60
2023-02-06T19:28:39.784Z,9.00
2023-02-06T19:31:08.326Z,11.70
2023-02-06T19:33:37.271Z,8.50
2023-02-06T19:36:13.415Z,9.60
2023-02-06T19:38:41.020Z,11.60
2023-02-06T19:41:11.922Z,11.00
2023-02-06T19:43:39.046Z,14.20
2023-02-06T19:46:09.305Z,15.40
2023-02-06T19:48:36.224Z,18.20
2023-02-06T19:51:08.480Z,16.50
2023-02-06T19:53:36.254Z,14.60
2023-02-06T19:56:04.391Z,14.90
2023-02-06T19:58:31.992Z,12.50
2023-02-06T20:01:08.945Z,14.60
2023-02-06T20:03:36.444Z,16.60
2023-02-06T20:06:04.847Z,16.50
2023-02-06T20:08:31.735Z,13.80
2023-02-06T20:11:03.076Z,13.40
2023-02-06T20:13:30.307Z,13.40
2023-02-06T20:16:03.233Z,18.30
2023-02-06T20:18:31.444Z,22.40
2023-02-06T20:20:58.148Z,18.50
2023-02-06T20:23:25.054Z,15.30
2023-02-06T20:25:52.571Z,14.30
2023-02-06T20:28:19.351Z,15.70
2023-02-06T20:30:46.295Z,15.40
2023-02-06T20:33:13.136Z,13.10
2023-02-06T20:35:41.289Z,14.30
2023-02-06T20:38:08.743Z,13.20
2023-02-06T20:40:36.843Z,13.30
2023-02-06T20:43:03.582Z,14.60
2023-02-06T20:45:30.928Z,15.20
2023-02-06T20:47:57.749Z,16.10
2023-02-06T20:50:24.770Z,19.20
2023-02-06T20:52:51.584Z,22.90
2023-02-06T20:55:18.804Z,25.10
2023-02-06T20:57:45.680Z,35.10
2023-02-06T21:00:13.136Z,49.30
2023-02-06T21:02:39.998Z,35.20
2023-02-06T21:05:07.485Z,29.30
2023-02-06T21:07:34.187Z,18.90
2023-02-06T21:10:01.332Z,20.40
2023-02-06T21:12:28.615Z,25.20
2023-02-06T21:14:55.637Z,23.10
2023-02-06T21:17:22.783Z,19.20
2023-02-06T21:19:49.966Z,23.10
2023-02-06T21:22:16.702Z,18.60
2023-02-06T21:24:43.642Z,20.30
2023-02-06T21:27:10.556Z,20.40
2023-02-06T21:29:37.493Z,15.60
2023-02-06T21:32:13.784Z,18.50
2023-02-06T21:34:41.567Z,18.80
2023-02-06T21:37:08.710Z,18.40
2023-02-06T21:39:37.948Z,15.50
2023-02-06T21:42:05.040Z,16.30
2023-02-06T21:44:31.926Z,16.70
2023-02-06T21:46:58.600Z,16.60
2023-02-06T21:49:25.351Z,19.90
2023-02-06T21:51:53.178Z,26.50
2023-02-06T21:54:20.005Z,21.30
2023-02-06T21:56:47.170Z,22.10
2023-02-06T21:59:14.076Z,17.40
2023-02-06T22:01:41.205Z,20.00
2023-02-06T22:04:09.734Z,17.00
2023-02-06T22:06:37.084Z,16.10
2023-02-06T22:09:07.706Z,18.50
2023-02-06T22:11:39.427Z,16.10
2023-02-06T22:14:10.050Z,15.70
2023-02-06T22:16:37.455Z,14.80
2023-02-06T22:19:05.067Z,17.00
2023-02-06T22:21:33.403Z,18.90
2023-02-06T22:24:04.435Z,17.50
2023-02-06T22:26:31.435Z,17.70
2023-02-06T22:28:59.014Z,17.30
2023-02-06T22:31:29.213Z,17.00
2023-02-06T22:33:57.613Z,19.50
2023-02-06T22:36:26.930Z,18.50
2023-02-06T22:38:58.564Z,19.10
2023-02-06T22:41:25.449Z,18.70
2023-02-06T22:43:52.642Z,17.40
2023-02-06T22:46:25.754Z,17.90
2023-02-06T22:48:53.639Z,17.20
2023-02-06T22:51:20.885Z,17.10
2023-02-06T22:53:48.213Z,18.10
2023-02-06T22:56:36.043Z,17.40
2023-02-06T22:59:15.124Z,16.80
2023-02-06T23:02:00.358Z,19.00
2023-02-06T23:04:34.532Z,16.60
2023-02-06T23:07:01.791Z,17.70
2023-02-06T23:09:32.162Z,16.80
2023-02-06T23:12:00.017Z,16.80
2023-02-06T23:14:29.112Z,16.70
2023-02-06T23:16:56.186Z,16.60
2023-02-06T23:19:23.449Z,17.90
2023-02-06T23:21:51.357Z,18.50
2023-02-06T23:24:18.484Z,16.80
2023-02-06T23:26:47.472Z,16.20
2023-02-06T23:29:17.213Z,16.40
2023-02-06T23:31:45.888Z,18.50
2023-02-06T23:34:13.809Z,17.90
2023-02-06T23:36:40.764Z,16.60
2023-02-06T23:39:07.644Z,18.10
2023-02-06T23:41:35.166Z,16.70
2023-02-06T23:44:04.861Z,18.10
2023-02-06T23:46:34.474Z,16.80
2023-02-06T23:49:02.133Z,17.00
2023-02-06T23:51:29.712Z,16.30
2023-02-06T23:53:56.611Z,18.40
2023-02-06T23:56:26.737Z,17.20
2023-02-06T23:58:54.815Z,18.40
